createdAt,value
2023-05-01T00:02:18.189Z,12.02
2023-05-01T00:08:20.624Z,11.96
2023-05-01T00:14:23.107Z,12.03
2023-05-01T00:20:29.693Z,11.94
2023-05-01T00:26:33.231Z,11.72
2023-05-01T00:32:43.684Z,11.88
2023-05-01T00:38:48.088Z,11.41
2023-05-01T00:44:52.932Z,11.37
2023-05-01T00:50:57.095Z,11.93
2023-05-01T00:57:00.017Z,11.90
2023-05-01T01:03:03.000Z,11.97
2023-05-01T01:09:12.506Z,11.86
2023-05-01T01:15:31.095Z,11.96
2023-05-01T01:21:39.457Z,11.93
2023-05-01T01:28:04.029Z,11.99
2023-05-01T01:34:24.597Z,11.85
2023-05-01T01:40:33.052Z,11.67
2023-05-01T01:46:41.581Z,11.81
2023-05-01T01:52:50.069Z,11.77
2023-05-01T01:58:54.590Z,11.44
2023-05-01T02:04:58.044Z,11.68
2023-05-01T02:11:02.550Z,11.54
2023-05-01T02:17:07.821Z,10.77
2023-05-01T02:23:11.491Z,11.17
2023-05-01T02:29:14.952Z,10.43
2023-05-01T02:35:18.411Z,10.36
2023-05-01T02:41:22.915Z,11.07
2023-05-01T02:47:28.517Z,10.29
2023-05-01T02:53:33.914Z,10.78
2023-05-01T02:59:36.413Z,10.79
2023-05-01T03:05:41.930Z,10.70
2023-05-01T03:11:44.369Z,10.69
2023-05-01T03:17:46.865Z,10.29
2023-05-01T03:23:52.918Z,10.39
2023-05-01T03:30:03.005Z,9.53
2023-05-01T03:36:08.442Z,10.45
2023-05-01T03:42:10.833Z,10.30
2023-05-01T03:48:22.174Z,10.20
2023-05-01T03:54:26.775Z,10.36
2023-05-01T04:00:31.626Z,10.66
2023-05-01T04:06:34.812Z,10.48
2023-05-01T04:12:37.224Z,11.13
2023-05-01T04:18:39.736Z,10.65
2023-05-01T04:24:43.211Z,11.46
2023-05-01T04:30:45.702Z,11.77
2023-05-01T04:36:48.167Z,11.88
2023-05-01T04:42:50.682Z,12.15
2023-05-01T04:48:53.167Z,12.10
2023-05-01T04:54:55.592Z,12.61
2023-05-01T05:00:59.065Z,12.89
2023-05-01T05:07:01.569Z,12.56
2023-05-01T05:13:06.071Z,12.74
2023-05-01T05:19:08.560Z,12.82
2023-05-01T05:25:11.041Z,12.24
2023-05-01T05:31:13.549Z,12.86
2023-05-01T05:37:16.028Z,12.66
2023-05-01T05:43:18.454Z,12.46
2023-05-01T05:49:20.935Z,11.43
2023-05-01T05:55:23.449Z,11.84
2023-05-01T06:01:25.893Z,12.74
2023-05-01T06:07:29.368Z,12.52
2023-05-01T06:13:31.863Z,12.79
2023-05-01T06:19:34.324Z,12.52
2023-05-01T06:25:38.822Z,13.04
2023-05-01T06:31:42.319Z,12.92
2023-05-01T06:37:44.884Z,13.58
2023-05-01T06:43:47.319Z,13.36
2023-05-01T06:49:49.782Z,13.39
2023-05-01T06:55:52.265Z,14.68
2023-05-01T07:01:54.721Z,13.92
2023-05-01T07:08:01.533Z,14.16
2023-05-01T07:14:04.737Z,14.11
2023-05-01T07:20:13.217Z,14.11
2023-05-01T07:26:15.049Z,15.20
2023-05-01T07:32:24.233Z,14.74
2023-05-01T07:38:26.808Z,14.19
2023-05-01T07:44:28.906Z,15.57
2023-05-01T07:50:31.690Z,16.36
2023-05-01T07:56:34.202Z,15.59
2023-05-01T08:02:36.810Z,14.82
2023-05-01T08:08:39.123Z,14.81
2023-05-01T08:14:43.308Z,15.53
2023-05-01T08:20:46.075Z,16.28
2023-05-01T08:26:49.539Z,16.34
2023-05-01T08:32:55.072Z,17.28
2023-05-01T08:38:57.515Z,15.78
2023-05-01T08:45:01.953Z,15.18
2023-05-01T08:51:05.445Z,15.56
2023-05-01T08:57:10.952Z,17.08
2023-05-01T09:03:16.636Z,18.16
2023-05-01T09:09:18.976Z,16.57
2023-05-01T09:15:22.403Z,18.20
2023-05-01T09:21:26.877Z,17.40
2023-05-01T09:27:29.363Z,16.32
2023-05-01T09:33:31.852Z,18.60
2023-05-01T09:39:34.358Z,19.44
2023-05-01T09:45:37.823Z,18.12
2023-05-01T09:51:40.310Z,15.96
2023-05-01T09:57:43.804Z,17.67
2023-05-01T10:03:50.384Z,16.01
2023-05-01T10:09:52.760Z,16.50
2023-05-01T10:15:55.262Z,18.51
2023-05-01T10:21:57.716Z,17.34
2023-05-01T10:28:09.200Z,17.03
2023-05-01T10:34:17.775Z,18.51
2023-05-01T10:40:42.336Z,19.45
2023-05-01T10:46:44.836Z,17.23
2023-05-01T10:53:18.433Z,20.10
2023-05-01T10:59:25.872Z,17.51
2023-05-01T11:06:05.642Z,19.02
2023-05-01T11:12:15.682Z,17.34
2023-05-01T11:18:46.658Z,18.67
2023-05-01T11:24:50.127Z,18.83
2023-05-01T11:30:52.635Z,18.27
2023-05-01T11:36:55.103Z,18.50
2023-05-01T11:43:05.580Z,20.62
2023-05-01T11:49:09.205Z,18.35
2023-05-01T11:55:13.505Z,18.21
2023-05-01T12:01:19.072Z,20.68
2023-05-01T12:07:23.559Z,21.17
2023-05-01T12:13:29.036Z,19.82
2023-05-01T12:19:31.518Z,19.42
2023-05-01T12:25:41.040Z,19.84
2023-05-01T12:31:49.589Z,19.80
2023-05-01T12:37:52.108Z,18.09
2023-05-01T12:43:58.247Z,18.21
2023-05-01T12:50:04.996Z,20.52
2023-05-01T12:56:07.467Z,19.95
2023-05-01T13:02:17.073Z,18.40
2023-05-01T13:08:33.546Z,19.29
2023-05-01T13:14:43.048Z,19.91
2023-05-01T13:20:45.501Z,19.01
2023-05-01T13:26:47.965Z,19.30
2023-05-01T13:32:56.523Z,18.99
2023-05-01T13:38:59.992Z,18.30
2023-05-01T13:45:14.946Z,18.88
2023-05-01T13:51:25.233Z,19.43
2023-05-01T13:57:29.550Z,20.18
2023-05-01T14:03:41.204Z,18.27
2023-05-01T14:09:46.557Z,18.94
2023-05-01T14:15:49.084Z,18.60
2023-05-01T14:21:51.561Z,18.94
2023-05-01T14:27:55.104Z,17.77
2023-05-01T14:33:59.041Z,20.26
2023-05-01T14:40:14.478Z,19.24
2023-05-01T14:46:38.911Z,18.76
2023-05-01T14:52:41.727Z,18.82
2023-05-01T14:58:47.704Z,19.34
2023-05-01T15:04:49.736Z,18.38
2023-05-01T15:10:53.332Z,18.70
2023-05-01T15:17:01.185Z,18.97
2023-05-01T15:23:13.242Z,17.35
2023-05-01T15:29:21.115Z,18.08
2023-05-01T15:35:26.644Z,19.24
2023-05-01T15:41:39.128Z,19.06
2023-05-01T15:47:51.677Z,19.54
2023-05-01T15:54:01.143Z,19.54
2023-05-01T16:00:10.656Z,18.19
2023-05-01T16:06:37.276Z,18.00
2023-05-01T16:12:52.839Z,18.26
2023-05-01T16:18:58.852Z,17.88
2023-05-01T16:25:13.804Z,19.03
2023-05-01T16:31:27.524Z,17.90
2023-05-01T16:37:34.866Z,18.03
2023-05-01T16:43:42.318Z,18.02
2023-05-01T16:49:59.110Z,17.75
2023-05-01T16:56:11.367Z,17.99
2023-05-01T17:02:13.488Z,17.70
2023-05-01T17:08:16.404Z,18.12
2023-05-01T17:14:18.833Z,18.24
2023-05-01T17:20:22.299Z,17.33
2023-05-01T17:26:24.788Z,17.29
2023-05-01T17:32:36.858Z,17.58
2023-05-01T17:38:39.838Z,17.21
2023-05-01T17:44:42.303Z,17.33
2023-05-01T17:50:44.779Z,15.31
2023-05-01T17:56:47.258Z,16.55
2023-05-01T18:02:49.851Z,15.67
2023-05-01T18:08:53.223Z,15.99
2023-05-01T18:14:58.250Z,15.68
2023-05-01T18:21:00.335Z,15.78
2023-05-01T18:27:02.632Z,15.49
2023-05-01T18:33:05.187Z,14.85
2023-05-01T18:39:07.668Z,14.00
2023-05-01T18:45:16.141Z,14.30
2023-05-01T18:51:18.636Z,13.41
2023-05-01T18:57:21.150Z,13.80
2023-05-01T19:03:23.601Z,11.95
2023-05-01T19:09:26.118Z,12.98
2023-05-01T19:15:29.579Z,12.48
2023-05-01T19:21:33.020Z,11.34
2023-05-01T19:27:35.520Z,11.69
2023-05-01T19:33:38.987Z,12.61
2023-05-01T19:39:41.454Z,12.69
2023-05-01T19:45:45.005Z,12.52
2023-05-01T19:51:47.404Z,12.05
2023-05-01T19:57:49.896Z,8.90
2023-05-01T20:03:52.465Z,10.34
2023-05-01T20:09:54.826Z,10.95
2023-05-01T20:15:58.377Z,10.73
2023-05-01T20:22:00.844Z,9.74
2023-05-01T20:28:04.334Z,9.08
2023-05-01T20:34:06.888Z,11.06
2023-05-01T20:40:12.310Z,9.97
2023-05-01T20:46:14.803Z,10.83
2023-05-01T20:52:19.844Z,10.50
2023-05-01T20:58:21.736Z,8.11
2023-05-01T21:04:24.225Z,10.16
2023-05-01T21:10:26.715Z,9.16
2023-05-01T21:16:29.281Z,9.09
2023-05-01T21:22:31.679Z,9.47
2023-05-01T21:28:34.130Z,9.82
2023-05-01T21:34:36.599Z,9.78
2023-05-01T21:40:42.064Z,9.89
2023-05-01T21:46:44.634Z,9.79
2023-05-01T21:52:52.095Z,9.29
2023-05-01T21:59:01.590Z,9.05
2023-05-01T22:05:04.020Z,9.17
2023-05-01T22:11:10.552Z,8.83
2023-05-01T22:17:13.002Z,8.08
2023-05-01T22:23:15.486Z,7.34
2023-05-01T22:29:20.979Z,7.24
2023-05-01T22:35:23.431Z,8.45
2023-05-01T22:41:25.930Z,8.35
2023-05-01T22:47:28.445Z,7.84
2023-05-01T22:53:31.879Z,6.48
2023-05-01T22:59:34.367Z,7.85
2023-05-01T23:05:36.773Z,7.96
2023-05-01T23:11:42.261Z,8.30
2023-05-01T23:17:46.821Z,7.76
2023-05-01T23:23:49.193Z,8.00
2023-05-01T23:29:59.302Z,7.32
2023-05-01T23:36:02.207Z,7.54
2023-05-01T23:42:04.716Z,7.84
2023-05-01T23:48:07.331Z,7.67
2023-05-01T23:54:09.728Z,4.25
